This is the latest recevied weather packets stored in our database for station/object KQ4WWD. If no packets are shown the sender has not sent any weather packets the latest 10 day(s).
| Time | Temp. | Humidity | Pressure | Rain* | Wind** | Luminosity | Snow |
|---|---|---|---|---|---|---|---|
| 1777069211 | 21.11° C | 89% | 1011.1 hPa | 0 mm | - | 97 W/m² | - |
| 1777068907 | 21.11° C | 89% | 1011 hPa | 1.78 mm | - | 98 W/m² | - |
| 1777068603 | 20.56° C | 89% | 1011.4 hPa | 1.78 mm | - | 88 W/m² | - |
| 1777068302 | 20.56° C | 88% | 1011.5 hPa | 0 mm | - | 86 W/m² | - |
| 1777067997 | 21.11° C | 88% | 1011.5 hPa | 0 mm | - | 61 W/m² | - |
| 1777067697 | 21.67° C | 85% | 1011.3 hPa | 0 mm | - | 43 W/m² | - |
| 1777067391 | 25° C | 77% | 1011.5 hPa | 0 mm | - | 29 W/m² | - |
| 1777067090 | 28.33° C | 51% | 1010.9 hPa | 0 mm | - | 24 W/m² | - |
| 1777066786 | 28.89° C | 47% | 1010.7 hPa | 0 mm | - | 23 W/m² | - |
| 1777066483 | 28.89° C | 47% | 1010.5 hPa | 0 mm | - | 24 W/m² | - |
| 1777066177 | 29.44° C | 46% | 1010.6 hPa | 0 mm | - | 32 W/m² | - |
| 1777065877 | 28.89° C | 47% | 1010.4 hPa | 0 mm | - | 51 W/m² | - |
| 1777065573 | 28.89° C | 47% | 1010.3 hPa | 0 mm | - | 65 W/m² | - |
| 1777065267 | 28.89° C | 47% | 1010.3 hPa | 0 mm | - | 88 W/m² | - |
| 1777064964 | 29.44° C | 46% | 1010.1 hPa | 0 mm | - | 108 W/m² | - |
| 1777064661 | 29.44° C | 46% | 1010.3 hPa | 0 mm | - | 117 W/m² | - |
| 1777064357 | 29.44° C | 46% | 1010.3 hPa | 0 mm | - | 110 W/m² | - |
| 1777064054 | 29.44° C | 47% | 1010.5 hPa | 0 mm | - | 110 W/m² | - |
| 1777063753 | 29.44° C | 47% | 1010.6 hPa | 0 mm | - | 141 W/m² | - |
| 1777063449 | 30.56° C | 45% | 1010.6 hPa | 0 mm | - | 315 W/m² | - |
| 1777063145 | 30.56° C | 44% | 1010.4 hPa | 0 mm | - | 556 W/m² | - |
| 1777062842 | 30° C | 46% | 1010.4 hPa | 0 mm | - | 561 W/m² | - |
| 1777062537 | 29.44° C | 47% | 1010.7 hPa | 0 mm | - | 108 W/m² | - |
| 1777062231 | 29.44° C | 47% | 1010.6 hPa | 0 mm | - | 264 W/m² | - |
| 1777061929 | 28.89° C | 48% | 1010.9 hPa | 0 mm | - | 147 W/m² | - |
* Rain latest hour (hover to see other rain measurements)
** Current wind speed in m/s (hover to see current wind gust speed)